sensor_id;sensor_type;location;lat;lon;timestamp;P1;durP1;ratioP1;P2;durP2;ratioP2
15643;SDS011;7921;43.586;1.408;2024-01-15T00:01:08;12.03;;;10.83;;
15643;SDS011;7921;43.586;1.408;2024-01-15T00:03:34;11.70;;;10.50;;
15643;SDS011;7921;43.586;1.408;2024-01-15T00:05:59;11.03;;;10.00;;
15643;SDS011;7921;43.586;1.408;2024-01-15T00:08:25;9.63;;;8.63;;
15643;SDS011;7921;43.586;1.408;2024-01-15T00:10:50;8.40;;;7.50;;
15643;SDS011;7921;43.586;1.408;2024-01-15T00:13:16;9.20;;;7.20;;
15643;SDS011;7921;43.586;1.408;2024-01-15T00:15:41;5.83;;;5.20;;
15643;SDS011;7921;43.586;1.408;2024-01-15T00:18:06;6.17;;;5.57;;
15643;SDS011;7921;43.586;1.408;2024-01-15T00:20:32;5.97;;;5.33;;
15643;SDS011;7921;43.586;1.408;2024-01-15T00:22:57;5.37;;;4.87;;
15643;SDS011;7921;43.586;1.408;2024-01-15T00:25:23;5.73;;;5.10;;
15643;SDS011;7921;43.586;1.408;2024-01-15T00:27:48;5.43;;;4.93;;
15643;SDS011;7921;43.586;1.408;2024-01-15T00:30:14;5.03;;;4.47;;
15643;SDS011;7921;43.586;1.408;2024-01-15T00:32:39;5.30;;;4.80;;
15643;SDS011;7921;43.586;1.408;2024-01-15T00:35:05;6.00;;;4.50;;
15643;SDS011;7921;43.586;1.408;2024-01-15T00:37:30;4.43;;;4.07;;
15643;SDS011;7921;43.586;1.408;2024-01-15T00:39:56;4.90;;;4.50;;
15643;SDS011;7921;43.586;1.408;2024-01-15T00:42:21;4.93;;;4.53;;
15643;SDS011;7921;43.586;1.408;2024-01-15T00:44:47;4.57;;;3.97;;
15643;SDS011;7921;43.586;1.408;2024-01-15T00:47:12;5.60;;;4.90;;
15643;SDS011;7921;43.586;1.408;2024-01-15T00:49:37;5.23;;;4.73;;
15643;SDS011;7921;43.586;1.408;2024-01-15T00:52:03;5.13;;;3.87;;
15643;SDS011;7921;43.586;1.408;2024-01-15T00:54:28;4.97;;;4.17;;
15643;SDS011;7921;43.586;1.408;2024-01-15T00:56:54;5.93;;;4.47;;
15643;SDS011;7921;43.586;1.408;2024-01-15T00:59:20;5.00;;;4.10;;
15643;SDS011;7921;43.586;1.408;2024-01-15T01:01:45;5.67;;;4.40;;
15643;SDS011;7921;43.586;1.408;2024-01-15T01:04:11;4.77;;;3.73;;
15643;SDS011;7921;43.586;1.408;2024-01-15T01:06:37;5.83;;;4.10;;
15643;SDS011;7921;43.586;1.408;2024-01-15T01:09:02;3.97;;;3.67;;
15643;SDS011;7921;43.586;1.408;2024-01-15T01:11:28;5.37;;;4.23;;
15643;SDS011;7921;43.586;1.408;2024-01-15T01:13:53;5.53;;;3.90;;
15643;SDS011;7921;43.586;1.408;2024-01-15T01:16:19;5.03;;;4.30;;
15643;SDS011;7921;43.586;1.408;2024-01-15T01:18:44;5.67;;;3.77;;
15643;SDS011;7921;43.586;1.408;2024-01-15T01:21:10;4.10;;;3.80;;
15643;SDS011;7921;43.586;1.408;2024-01-15T01:23:35;4.30;;;3.60;;
15643;SDS011;7921;43.586;1.408;2024-01-15T01:26:00;4.53;;;3.83;;
15643;SDS011;7921;43.586;1.408;2024-01-15T01:28:26;3.23;;;3.00;;
15643;SDS011;7921;43.586;1.408;2024-01-15T01:30:52;6.23;;;4.00;;
15643;SDS011;7921;43.586;1.408;2024-01-15T01:33:18;4.60;;;4.20;;
15643;SDS011;7921;43.586;1.408;2024-01-15T01:35:43;3.90;;;3.50;;
15643;SDS011;7921;43.586;1.408;2024-01-15T01:38:10;5.27;;;3.80;;
15643;SDS011;7921;43.586;1.408;2024-01-15T01:40:35;5.37;;;4.73;;
15643;SDS011;7921;43.586;1.408;2024-01-15T01:43:02;5.73;;;5.13;;
15643;SDS011;7921;43.586;1.408;2024-01-15T01:45:28;4.90;;;4.50;;
15643;SDS011;7921;43.586;1.408;2024-01-15T01:47:53;5.23;;;4.63;;
15643;SDS011;7921;43.586;1.408;2024-01-15T01:50:19;5.63;;;4.60;;
15643;SDS011;7921;43.586;1.408;2024-01-15T01:52:44;7.47;;;5.13;;
15643;SDS011;7921;43.586;1.408;2024-01-15T01:55:10;8.27;;;5.63;;
15643;SDS011;7921;43.586;1.408;2024-01-15T01:57:36;7.67;;;6.07;;
15643;SDS011;7921;43.586;1.408;2024-01-15T02:00:02;7.13;;;5.47;;
15643;SDS011;7921;43.586;1.408;2024-01-15T02:02:29;9.43;;;5.30;;
15643;SDS011;7921;43.586;1.408;2024-01-15T02:04:55;7.13;;;5.40;;
15643;SDS011;7921;43.586;1.408;2024-01-15T02:07:20;5.90;;;5.20;;
15643;SDS011;7921;43.586;1.408;2024-01-15T02:09:46;6.90;;;4.63;;
15643;SDS011;7921;43.586;1.408;2024-01-15T02:12:11;5.57;;;4.93;;
15643;SDS011;7921;43.586;1.408;2024-01-15T02:14:36;5.27;;;4.70;;
15643;SDS011;7921;43.586;1.408;2024-01-15T02:17:02;5.10;;;4.63;;
15643;SDS011;7921;43.586;1.408;2024-01-15T02:19:27;5.73;;;4.70;;
15643;SDS011;7921;43.586;1.408;2024-01-15T02:21:53;5.23;;;4.70;;
15643;SDS011;7921;43.586;1.408;2024-01-15T02:24:18;6.40;;;5.37;;
15643;SDS011;7921;43.586;1.408;2024-01-15T02:26:43;6.30;;;4.63;;
15643;SDS011;7921;43.586;1.408;2024-01-15T02:29:09;4.60;;;4.20;;
15643;SDS011;7921;43.586;1.408;2024-01-15T02:31:35;4.90;;;4.50;;
15643;SDS011;7921;43.586;1.408;2024-01-15T02:34:01;4.37;;;3.77;;
15643;SDS011;7921;43.586;1.408;2024-01-15T02:36:26;5.90;;;4.67;;
15643;SDS011;7921;43.586;1.408;2024-01-15T02:38:52;4.63;;;4.03;;
15643;SDS011;7921;43.586;1.408;2024-01-15T02:41:17;5.23;;;4.43;;
15643;SDS011;7921;43.586;1.408;2024-01-15T02:43:43;4.60;;;4.00;;
15643;SDS011;7921;43.586;1.408;2024-01-15T02:46:08;3.93;;;3.63;;
15643;SDS011;7921;43.586;1.408;2024-01-15T02:48:33;4.97;;;3.80;;
15643;SDS011;7921;43.586;1.408;2024-01-15T02:51:00;4.33;;;3.93;;
15643;SDS011;7921;43.586;1.408;2024-01-15T02:53:26;7.77;;;4.30;;
15643;SDS011;7921;43.586;1.408;2024-01-15T02:55:51;4.33;;;3.93;;
15643;SDS011;7921;43.586;1.408;2024-01-15T02:58:17;4.63;;;4.23;;
15643;SDS011;7921;43.586;1.408;2024-01-15T03:00:42;5.40;;;4.90;;
15643;SDS011;7921;43.586;1.408;2024-01-15T03:03:08;5.13;;;4.63;;
15643;SDS011;7921;43.586;1.408;2024-01-15T03:05:33;5.10;;;4.60;;
15643;SDS011;7921;43.586;1.408;2024-01-15T03:07:59;7.23;;;5.07;;
15643;SDS011;7921;43.586;1.408;2024-01-15T03:10:24;4.40;;;4.00;;
15643;SDS011;7921;43.586;1.408;2024-01-15T03:12:49;5.47;;;4.93;;
15643;SDS011;7921;43.586;1.408;2024-01-15T03:15:15;5.57;;;4.70;;
15643;SDS011;7921;43.586;1.408;2024-01-15T03:17:43;5.23;;;4.73;;
15643;SDS011;7921;43.586;1.408;2024-01-15T03:20:09;4.77;;;4.37;;
15643;SDS011;7921;43.586;1.408;2024-01-15T03:22:35;4.97;;;4.57;;
15643;SDS011;7921;43.586;1.408;2024-01-15T03:25:00;4.73;;;4.30;;
15643;SDS011;7921;43.586;1.408;2024-01-15T03:27:25;4.93;;;4.07;;
15643;SDS011;7921;43.586;1.408;2024-01-15T03:29:51;5.10;;;4.50;;
15643;SDS011;7921;43.586;1.408;2024-01-15T03:32:16;5.23;;;4.30;;
15643;SDS011;7921;43.586;1.408;2024-01-15T03:34:41;5.23;;;4.73;;
15643;SDS011;7921;43.586;1.408;2024-01-15T03:37:07;5.17;;;4.30;;
15643;SDS011;7921;43.586;1.408;2024-01-15T03:39:32;6.00;;;4.50;;
15643;SDS011;7921;43.586;1.408;2024-01-15T03:41:58;6.67;;;4.67;;
15643;SDS011;7921;43.586;1.408;2024-01-15T03:44:23;6.57;;;4.87;;
15643;SDS011;7921;43.586;1.408;2024-01-15T03:46:49;5.33;;;4.83;;
15643;SDS011;7921;43.586;1.408;2024-01-15T03:49:14;5.20;;;4.70;;
15643;SDS011;7921;43.586;1.408;2024-01-15T03:51:40;5.20;;;4.70;;
15643;SDS011;7921;43.586;1.408;2024-01-15T03:54:05;5.40;;;4.90;;
15643;SDS011;7921;43.586;1.408;2024-01-15T03:56:30;5.43;;;4.93;;
15643;SDS011;7921;43.586;1.408;2024-01-15T03:58:56;5.10;;;4.60;;
15643;SDS011;7921;43.586;1.408;2024-01-15T04:01:21;5.83;;;4.30;;
15643;SDS011;7921;43.586;1.408;2024-01-15T04:03:47;5.30;;;4.80;;
15643;SDS011;7921;43.586;1.408;2024-01-15T04:06:12;5.37;;;4.87;;
15643;SDS011;7921;43.586;1.408;2024-01-15T04:08:37;4.77;;;4.37;;
15643;SDS011;7921;43.586;1.408;2024-01-15T04:11:03;5.07;;;4.67;;
15643;SDS011;7921;43.586;1.408;2024-01-15T04:13:28;5.43;;;4.93;;
15643;SDS011;7921;43.586;1.408;2024-01-15T04:15:57;4.80;;;4.33;;
15643;SDS011;7921;43.586;1.408;2024-01-15T04:18:22;4.73;;;4.33;;
15643;SDS011;7921;43.586;1.408;2024-01-15T04:20:48;5.67;;;5.13;;
15643;SDS011;7921;43.586;1.408;2024-01-15T04:23:13;5.30;;;4.47;;
15643;SDS011;7921;43.586;1.408;2024-01-15T04:25:38;6.37;;;5.50;;
15643;SDS011;7921;43.586;1.408;2024-01-15T04:28:07;5.03;;;4.53;;
15643;SDS011;7921;43.586;1.408;2024-01-15T04:30:33;5.10;;;4.70;;
15643;SDS011;7921;43.586;1.408;2024-01-15T04:32:58;6.13;;;5.53;;
15643;SDS011;7921;43.586;1.408;2024-01-15T04:35:24;5.80;;;5.17;;
15643;SDS011;7921;43.586;1.408;2024-01-15T04:37:49;5.60;;;4.73;;
15643;SDS011;7921;43.586;1.408;2024-01-15T04:40:14;5.23;;;4.83;;
15643;SDS011;7921;43.586;1.408;2024-01-15T04:42:40;5.73;;;5.20;;
15643;SDS011;7921;43.586;1.408;2024-01-15T04:45:05;5.43;;;4.93;;
15643;SDS011;7921;43.586;1.408;2024-01-15T04:47:31;5.43;;;5.03;;
15643;SDS011;7921;43.586;1.408;2024-01-15T04:49:56;8.07;;;5.83;;
15643;SDS011;7921;43.586;1.408;2024-01-15T04:52:22;6.20;;;5.60;;
15643;SDS011;7921;43.586;1.408;2024-01-15T04:54:47;5.83;;;5.37;;
15643;SDS011;7921;43.586;1.408;2024-01-15T04:57:13;6.17;;;5.37;;
15643;SDS011;7921;43.586;1.408;2024-01-15T04:59:38;5.83;;;5.33;;
15643;SDS011;7921;43.586;1.408;2024-01-15T05:02:04;6.53;;;5.97;;
15643;SDS011;7921;43.586;1.408;2024-01-15T05:04:30;7.90;;;5.50;;
15643;SDS011;7921;43.586;1.408;2024-01-15T05:06:55;6.30;;;5.63;;
15643;SDS011;7921;43.586;1.408;2024-01-15T05:09:20;6.30;;;5.50;;
15643;SDS011;7921;43.586;1.408;2024-01-15T05:11:46;6.37;;;5.77;;
15643;SDS011;7921;43.586;1.408;2024-01-15T05:14:11;7.23;;;6.40;;
15643;SDS011;7921;43.586;1.408;2024-01-15T05:16:40;7.67;;;6.30;;
15643;SDS011;7921;43.586;1.408;2024-01-15T05:19:11;6.40;;;5.83;;
15643;SDS011;7921;43.586;1.408;2024-01-15T05:21:37;6.80;;;6.10;;
15643;SDS011;7921;43.586;1.408;2024-01-15T05:24:02;6.53;;;5.93;;
15643;SDS011;7921;43.586;1.408;2024-01-15T05:26:27;6.87;;;6.13;;
15643;SDS011;7921;43.586;1.408;2024-01-15T05:28:53;6.60;;;5.90;;
15643;SDS011;7921;43.586;1.408;2024-01-15T05:31:18;6.70;;;6.17;;
15643;SDS011;7921;43.586;1.408;2024-01-15T05:33:43;6.87;;;6.17;;
15643;SDS011;7921;43.586;1.408;2024-01-15T05:36:09;7.93;;;6.87;;
15643;SDS011;7921;43.586;1.408;2024-01-15T05:38:34;6.13;;;5.53;;
15643;SDS011;7921;43.586;1.408;2024-01-15T05:41:00;7.43;;;6.43;;
15643;SDS011;7921;43.586;1.408;2024-01-15T05:43:25;7.27;;;6.57;;
15643;SDS011;7921;43.586;1.408;2024-01-15T05:45:50;7.03;;;5.70;;
15643;SDS011;7921;43.586;1.408;2024-01-15T05:48:16;7.07;;;6.13;;
15643;SDS011;7921;43.586;1.408;2024-01-15T05:50:41;6.47;;;5.87;;
15643;SDS011;7921;43.586;1.408;2024-01-15T05:53:07;6.37;;;5.80;;
15643;SDS011;7921;43.586;1.408;2024-01-15T05:55:33;6.30;;;5.70;;
15643;SDS011;7921;43.586;1.408;2024-01-15T05:57:58;7.70;;;6.90;;
15643;SDS011;7921;43.586;1.408;2024-01-15T06:00:23;6.10;;;5.57;;
15643;SDS011;7921;43.586;1.408;2024-01-15T06:02:49;8.20;;;6.83;;
15643;SDS011;7921;43.586;1.408;2024-01-15T06:05:14;9.23;;;7.10;;
15643;SDS011;7921;43.586;1.408;2024-01-15T06:07:40;8.40;;;7.20;;
15643;SDS011;7921;43.586;1.408;2024-01-15T06:10:05;8.07;;;7.27;;
15643;SDS011;7921;43.586;1.408;2024-01-15T06:12:31;9.37;;;8.33;;
15643;SDS011;7921;43.586;1.408;2024-01-15T06:14:59;11.77;;;8.20;;
15643;SDS011;7921;43.586;1.408;2024-01-15T06:17:24;9.37;;;8.33;;
15643;SDS011;7921;43.586;1.408;2024-01-15T06:19:49;11.27;;;8.90;;
15643;SDS011;7921;43.586;1.408;2024-01-15T06:22:15;17.37;;;10.07;;
15643;SDS011;7921;43.586;1.408;2024-01-15T06:24:41;14.13;;;10.87;;
15643;SDS011;7921;43.586;1.408;2024-01-15T06:27:06;15.50;;;11.23;;
15643;SDS011;7921;43.586;1.408;2024-01-15T06:29:31;19.97;;;11.40;;
15643;SDS011;7921;43.586;1.408;2024-01-15T06:31:57;18.53;;;11.67;;
15643;SDS011;7921;43.586;1.408;2024-01-15T06:34:22;18.23;;;11.90;;
15643;SDS011;7921;43.586;1.408;2024-01-15T06:36:47;20.40;;;12.50;;
15643;SDS011;7921;43.586;1.408;2024-01-15T06:39:13;20.60;;;12.27;;
15643;SDS011;7921;43.586;1.408;2024-01-15T06:41:38;21.80;;;13.67;;
15643;SDS011;7921;43.586;1.408;2024-01-15T06:44:11;17.70;;;12.60;;
15643;SDS011;7921;43.586;1.408;2024-01-15T06:46:41;22.63;;;13.23;;
15643;SDS011;7921;43.586;1.408;2024-01-15T06:49:07;20.27;;;12.87;;
15643;SDS011;7921;43.586;1.408;2024-01-15T06:51:33;17.43;;;11.83;;
15643;SDS011;7921;43.586;1.408;2024-01-15T06:53:58;21.03;;;12.40;;
15643;SDS011;7921;43.586;1.408;2024-01-15T06:56:23;16.97;;;11.17;;
15643;SDS011;7921;43.586;1.408;2024-01-15T06:58:49;18.17;;;12.57;;
15643;SDS011;7921;43.586;1.408;2024-01-15T07:01:14;18.20;;;12.00;;
15643;SDS011;7921;43.586;1.408;2024-01-15T07:03:39;23.17;;;12.40;;
15643;SDS011;7921;43.586;1.408;2024-01-15T07:06:05;18.17;;;11.80;;
15643;SDS011;7921;43.586;1.408;2024-01-15T07:08:30;23.03;;;13.53;;
15643;SDS011;7921;43.586;1.408;2024-01-15T07:10:56;18.37;;;11.57;;
15643;SDS011;7921;43.586;1.408;2024-01-15T07:13:21;19.00;;;12.00;;
15643;SDS011;7921;43.586;1.408;2024-01-15T07:15:46;16.97;;;11.50;;
15643;SDS011;7921;43.586;1.408;2024-01-15T07:18:12;17.67;;;11.47;;
15643;SDS011;7921;43.586;1.408;2024-01-15T07:20:37;15.97;;;10.73;;
15643;SDS011;7921;43.586;1.408;2024-01-15T07:23:03;17.70;;;11.20;;
15643;SDS011;7921;43.586;1.408;2024-01-15T07:25:29;18.23;;;11.20;;
15643;SDS011;7921;43.586;1.408;2024-01-15T07:27:54;17.93;;;11.23;;
15643;SDS011;7921;43.586;1.408;2024-01-15T07:30:20;20.00;;;12.33;;
15643;SDS011;7921;43.586;1.408;2024-01-15T07:32:46;17.77;;;11.33;;
15643;SDS011;7921;43.586;1.408;2024-01-15T07:35:12;18.63;;;11.47;;
15643;SDS011;7921;43.586;1.408;2024-01-15T07:37:38;20.27;;;12.20;;
15643;SDS011;7921;43.586;1.408;2024-01-15T07:40:03;19.33;;;11.43;;
15643;SDS011;7921;43.586;1.408;2024-01-15T07:42:30;19.00;;;11.63;;
15643;SDS011;7921;43.586;1.408;2024-01-15T07:44:56;19.13;;;12.57;;
15643;SDS011;7921;43.586;1.408;2024-01-15T07:47:21;19.43;;;13.30;;
15643;SDS011;7921;43.586;1.408;2024-01-15T07:49:47;17.67;;;11.93;;
15643;SDS011;7921;43.586;1.408;2024-01-15T07:52:12;18.80;;;11.53;;
15643;SDS011;7921;43.586;1.408;2024-01-15T07:54:38;16.57;;;11.03;;
15643;SDS011;7921;43.586;1.408;2024-01-15T07:57:04;15.93;;;10.90;;
15643;SDS011;7921;43.586;1.408;2024-01-15T07:59:29;19.33;;;11.40;;
15643;SDS011;7921;43.586;1.408;2024-01-15T08:01:55;20.03;;;12.43;;
15643;SDS011;7921;43.586;1.408;2024-01-15T08:04:20;17.50;;;10.63;;
15643;SDS011;7921;43.586;1.408;2024-01-15T08:06:47;13.77;;;10.13;;
15643;SDS011;7921;43.586;1.408;2024-01-15T08:09:12;15.27;;;10.67;;
15643;SDS011;7921;43.586;1.408;2024-01-15T08:11:40;17.27;;;10.83;;
15643;SDS011;7921;43.586;1.408;2024-01-15T08:14:09;14.77;;;10.37;;
15643;SDS011;7921;43.586;1.408;2024-01-15T08:16:35;16.63;;;10.83;;
15643;SDS011;7921;43.586;1.408;2024-01-15T08:19:01;14.70;;;10.33;;
15643;SDS011;7921;43.586;1.408;2024-01-15T08:21:26;13.17;;;9.37;;
15643;SDS011;7921;43.586;1.408;2024-01-15T08:23:55;13.70;;;9.70;;
15643;SDS011;7921;43.586;1.408;2024-01-15T08:26:23;13.30;;;10.20;;
15643;SDS011;7921;43.586;1.408;2024-01-15T08:28:49;12.20;;;9.07;;
15643;SDS011;7921;43.586;1.408;2024-01-15T08:31:15;13.10;;;9.67;;
15643;SDS011;7921;43.586;1.408;2024-01-15T08:33:40;14.87;;;9.33;;
15643;SDS011;7921;43.586;1.408;2024-01-15T08:36:06;12.60;;;9.10;;
15643;SDS011;7921;43.586;1.408;2024-01-15T08:38:31;10.60;;;8.70;;
15643;SDS011;7921;43.586;1.408;2024-01-15T08:40:56;13.70;;;9.90;;
15643;SDS011;7921;43.586;1.408;2024-01-15T08:43:24;12.33;;;9.13;;
15643;SDS011;7921;43.586;1.408;2024-01-15T08:45:49;12.20;;;9.50;;
15643;SDS011;7921;43.586;1.408;2024-01-15T08:48:16;12.57;;;9.80;;
15643;SDS011;7921;43.586;1.408;2024-01-15T08:50:41;13.50;;;10.00;;
15643;SDS011;7921;43.586;1.408;2024-01-15T08:53:06;11.97;;;9.53;;
15643;SDS011;7921;43.586;1.408;2024-01-15T08:55:32;14.57;;;10.33;;
15643;SDS011;7921;43.586;1.408;2024-01-15T08:57:57;15.07;;;10.83;;
15643;SDS011;7921;43.586;1.408;2024-01-15T09:00:23;13.63;;;11.10;;
15643;SDS011;7921;43.586;1.408;2024-01-15T09:02:48;12.03;;;10.10;;
15643;SDS011;7921;43.586;1.408;2024-01-15T09:05:14;13.03;;;8.87;;
15643;SDS011;7921;43.586;1.408;2024-01-15T09:07:39;14.50;;;11.03;;
15643;SDS011;7921;43.586;1.408;2024-01-15T09:10:05;15.53;;;11.43;;
15643;SDS011;7921;43.586;1.408;2024-01-15T09:12:31;15.00;;;11.60;;
15643;SDS011;7921;43.586;1.408;2024-01-15T09:14:57;16.37;;;12.03;;
15643;SDS011;7921;43.586;1.408;2024-01-15T09:17:22;12.90;;;10.60;;
15643;SDS011;7921;43.586;1.408;2024-01-15T09:19:53;15.97;;;11.00;;
15643;SDS011;7921;43.586;1.408;2024-01-15T09:22:18;16.57;;;11.50;;
15643;SDS011;7921;43.586;1.408;2024-01-15T09:24:44;15.73;;;10.83;;
15643;SDS011;7921;43.586;1.408;2024-01-15T09:27:10;16.27;;;11.40;;
15643;SDS011;7921;43.586;1.408;2024-01-15T09:29:36;16.53;;;11.33;;
15643;SDS011;7921;43.586;1.408;2024-01-15T09:32:04;15.37;;;11.30;;
15643;SDS011;7921;43.586;1.408;2024-01-15T09:34:30;16.20;;;11.40;;
15643;SDS011;7921;43.586;1.408;2024-01-15T09:36:56;15.13;;;10.53;;
15643;SDS011;7921;43.586;1.408;2024-01-15T09:39:21;15.70;;;11.77;;
15643;SDS011;7921;43.586;1.408;2024-01-15T09:41:48;17.27;;;11.77;;
15643;SDS011;7921;43.586;1.408;2024-01-15T09:44:14;16.70;;;11.77;;
15643;SDS011;7921;43.586;1.408;2024-01-15T09:46:40;15.17;;;12.03;;
15643;SDS011;7921;43.586;1.408;2024-01-15T09:49:06;17.07;;;11.80;;
15643;SDS011;7921;43.586;1.408;2024-01-15T09:51:31;18.27;;;12.53;;
15643;SDS011;7921;43.586;1.408;2024-01-15T09:53:57;18.77;;;12.93;;
15643;SDS011;7921;43.586;1.408;2024-01-15T09:56:23;16.27;;;11.80;;
15643;SDS011;7921;43.586;1.408;2024-01-15T09:58:49;16.03;;;12.23;;
15643;SDS011;7921;43.586;1.408;2024-01-15T10:01:16;18.33;;;13.07;;
15643;SDS011;7921;43.586;1.408;2024-01-15T10:03:42;17.53;;;12.63;;
15643;SDS011;7921;43.586;1.408;2024-01-15T10:06:07;15.77;;;12.03;;
15643;SDS011;7921;43.586;1.408;2024-01-15T10:08:34;16.87;;;13.30;;
15643;SDS011;7921;43.586;1.408;2024-01-15T10:11:01;18.93;;;12.70;;
15643;SDS011;7921;43.586;1.408;2024-01-15T10:13:29;18.33;;;12.60;;
15643;SDS011;7921;43.586;1.408;2024-01-15T10:15:55;19.50;;;13.07;;
15643;SDS011;7921;43.586;1.408;2024-01-15T10:18:20;17.47;;;12.87;;
15643;SDS011;7921;43.586;1.408;2024-01-15T10:20:46;16.90;;;12.87;;
15643;SDS011;7921;43.586;1.408;2024-01-15T10:23:12;18.70;;;12.80;;
15643;SDS011;7921;43.586;1.408;2024-01-15T10:25:39;18.13;;;13.27;;
15643;SDS011;7921;43.586;1.408;2024-01-15T10:28:07;21.47;;;13.93;;
15643;SDS011;7921;43.586;1.408;2024-01-15T10:30:32;20.27;;;14.63;;
15643;SDS011;7921;43.586;1.408;2024-01-15T10:33:02;23.03;;;15.33;;
15643;SDS011;7921;43.586;1.408;2024-01-15T10:37:57;21.63;;;14.40;;
15643;SDS011;7921;43.586;1.408;2024-01-15T10:40:23;17.50;;;13.60;;
15643;SDS011;7921;43.586;1.408;2024-01-15T10:42:49;23.50;;;14.57;;
15643;SDS011;7921;43.586;1.408;2024-01-15T10:45:14;21.17;;;14.73;;
15643;SDS011;7921;43.586;1.408;2024-01-15T10:47:43;20.73;;;13.83;;
15643;SDS011;7921;43.586;1.408;2024-01-15T10:50:08;21.00;;;14.00;;
15643;SDS011;7921;43.586;1.408;2024-01-15T10:52:35;19.50;;;13.53;;
15643;SDS011;7921;43.586;1.408;2024-01-15T10:55:05;22.27;;;14.53;;
15643;SDS011;7921;43.586;1.408;2024-01-15T10:57:33;21.93;;;14.07;;
15643;SDS011;7921;43.586;1.408;2024-01-15T10:59:59;19.27;;;14.17;;
15643;SDS011;7921;43.586;1.408;2024-01-15T11:02:27;19.47;;;14.17;;
15643;SDS011;7921;43.586;1.408;2024-01-15T11:04:53;17.63;;;13.67;;
15643;SDS011;7921;43.586;1.408;2024-01-15T11:07:18;20.70;;;14.03;;
15643;SDS011;7921;43.586;1.408;2024-01-15T11:09:49;19.37;;;13.53;;
15643;SDS011;7921;43.586;1.408;2024-01-15T11:12:15;19.00;;;13.13;;
15643;SDS011;7921;43.586;1.408;2024-01-15T11:14:45;19.23;;;13.77;;
15643;SDS011;7921;43.586;1.408;2024-01-15T11:17:14;17.23;;;12.80;;
15643;SDS011;7921;43.586;1.408;2024-01-15T11:22:08;18.10;;;13.80;;
15643;SDS011;7921;43.586;1.408;2024-01-15T11:27:04;18.07;;;13.50;;
15643;SDS011;7921;43.586;1.408;2024-01-15T11:29:31;16.70;;;12.07;;
15643;SDS011;7921;43.586;1.408;2024-01-15T11:32:08;15.57;;;11.50;;
15643;SDS011;7921;43.586;1.408;2024-01-15T11:34:54;15.30;;;11.97;;
15643;SDS011;7921;43.586;1.408;2024-01-15T11:37:23;14.33;;;11.47;;
15643;SDS011;7921;43.586;1.408;2024-01-15T11:39:50;14.80;;;12.20;;
15643;SDS011;7921;43.586;1.408;2024-01-15T11:42:19;11.80;;;10.00;;
15643;SDS011;7921;43.586;1.408;2024-01-15T11:44:46;12.00;;;10.50;;
15643;SDS011;7921;43.586;1.408;2024-01-15T11:47:12;11.63;;;10.43;;
15643;SDS011;7921;43.586;1.408;2024-01-15T11:52:26;11.37;;;9.40;;
15643;SDS011;7921;43.586;1.408;2024-01-15T11:55:07;10.57;;;9.47;;
15643;SDS011;7921;43.586;1.408;2024-01-15T12:00:05;9.77;;;8.77;;
15643;SDS011;7921;43.586;1.408;2024-01-15T12:02:31;14.63;;;9.90;;
15643;SDS011;7921;43.586;1.408;2024-01-15T12:04:57;10.20;;;9.00;;
15643;SDS011;7921;43.586;1.408;2024-01-15T12:07:23;10.03;;;9.03;;
15643;SDS011;7921;43.586;1.408;2024-01-15T12:09:48;9.93;;;8.83;;
15643;SDS011;7921;43.586;1.408;2024-01-15T12:12:16;11.17;;;9.23;;
15643;SDS011;7921;43.586;1.408;2024-01-15T12:14:50;10.93;;;9.30;;
15643;SDS011;7921;43.586;1.408;2024-01-15T12:17:15;12.33;;;9.77;;
15643;SDS011;7921;43.586;1.408;2024-01-15T12:19:41;11.17;;;10.07;;
15643;SDS011;7921;43.586;1.408;2024-01-15T12:22:06;10.70;;;9.70;;
15643;SDS011;7921;43.586;1.408;2024-01-15T12:24:32;12.13;;;10.50;;
15643;SDS011;7921;43.586;1.408;2024-01-15T12:26:57;10.77;;;9.77;;
15643;SDS011;7921;43.586;1.408;2024-01-15T12:29:23;12.13;;;10.93;;
15643;SDS011;7921;43.586;1.408;2024-01-15T12:31:48;12.33;;;11.13;;
15643;SDS011;7921;43.586;1.408;2024-01-15T12:34:14;12.87;;;10.93;;
15643;SDS011;7921;43.586;1.408;2024-01-15T12:36:40;12.80;;;11.30;;
15643;SDS011;7921;43.586;1.408;2024-01-15T12:39:05;13.50;;;10.80;;
15643;SDS011;7921;43.586;1.408;2024-01-15T12:41:34;13.37;;;11.03;;
15643;SDS011;7921;43.586;1.408;2024-01-15T12:43:59;13.03;;;11.70;;
15643;SDS011;7921;43.586;1.408;2024-01-15T12:46:25;12.57;;;11.37;;
15643;SDS011;7921;43.586;1.408;2024-01-15T12:48:50;12.53;;;11.33;;
15643;SDS011;7921;43.586;1.408;2024-01-15T12:51:16;12.20;;;11.13;;
15643;SDS011;7921;43.586;1.408;2024-01-15T12:53:41;12.87;;;11.57;;
15643;SDS011;7921;43.586;1.408;2024-01-15T12:56:06;13.30;;;12.00;;
15643;SDS011;7921;43.586;1.408;2024-01-15T12:58:32;12.40;;;11.20;;
15643;SDS011;7921;43.586;1.408;2024-01-15T13:00:57;12.80;;;11.50;;
15643;SDS011;7921;43.586;1.408;2024-01-15T13:03:23;12.70;;;11.50;;
15643;SDS011;7921;43.586;1.408;2024-01-15T13:05:48;13.23;;;11.93;;
15643;SDS011;7921;43.586;1.408;2024-01-15T13:08:14;11.70;;;10.60;;
15643;SDS011;7921;43.586;1.408;2024-01-15T13:10:40;11.43;;;10.33;;
15643;SDS011;7921;43.586;1.408;2024-01-15T13:13:07;13.37;;;11.93;;
15643;SDS011;7921;43.586;1.408;2024-01-15T13:15:32;12.90;;;11.70;;
15643;SDS011;7921;43.586;1.408;2024-01-15T13:17:58;12.30;;;11.20;;
15643;SDS011;7921;43.586;1.408;2024-01-15T13:20:23;12.43;;;11.33;;
15643;SDS011;7921;43.586;1.408;2024-01-15T13:22:48;12.60;;;11.27;;
15643;SDS011;7921;43.586;1.408;2024-01-15T13:25:14;13.00;;;11.80;;
15643;SDS011;7921;43.586;1.408;2024-01-15T13:27:41;12.73;;;11.57;;
15643;SDS011;7921;43.586;1.408;2024-01-15T13:30:06;13.03;;;11.67;;
15643;SDS011;7921;43.586;1.408;2024-01-15T13:32:32;13.63;;;12.30;;
15643;SDS011;7921;43.586;1.408;2024-01-15T13:34:59;13.63;;;12.43;;
15643;SDS011;7921;43.586;1.408;2024-01-15T13:37:25;13.60;;;12.23;;
15643;SDS011;7921;43.586;1.408;2024-01-15T13:39:50;13.40;;;12.20;;
15643;SDS011;7921;43.586;1.408;2024-01-15T13:42:19;13.50;;;12.20;;
15643;SDS011;7921;43.586;1.408;2024-01-15T13:44:47;13.47;;;12.27;;
15643;SDS011;7921;43.586;1.408;2024-01-15T13:47:12;13.93;;;12.13;;
15643;SDS011;7921;43.586;1.408;2024-01-15T13:49:38;13.13;;;11.90;;
15643;SDS011;7921;43.586;1.408;2024-01-15T13:52:04;14.30;;;13.03;;
15643;SDS011;7921;43.586;1.408;2024-01-15T13:54:29;12.87;;;11.67;;
15643;SDS011;7921;43.586;1.408;2024-01-15T13:56:55;13.20;;;11.93;;
15643;SDS011;7921;43.586;1.408;2024-01-15T13:59:21;13.67;;;12.37;;
15643;SDS011;7921;43.586;1.408;2024-01-15T14:01:46;13.13;;;11.93;;
15643;SDS011;7921;43.586;1.408;2024-01-15T14:04:12;13.63;;;12.23;;
15643;SDS011;7921;43.586;1.408;2024-01-15T14:06:37;13.67;;;12.27;;
15643;SDS011;7921;43.586;1.408;2024-01-15T14:09:04;12.90;;;11.60;;
15643;SDS011;7921;43.586;1.408;2024-01-15T14:11:29;13.27;;;12.07;;
15643;SDS011;7921;43.586;1.408;2024-01-15T14:13:55;19.83;;;17.87;;
15643;SDS011;7921;43.586;1.408;2024-01-15T14:16:20;20.77;;;18.63;;
15643;SDS011;7921;43.586;1.408;2024-01-15T14:18:45;35.97;;;32.20;;
15643;SDS011;7921;43.586;1.408;2024-01-15T14:21:11;21.70;;;19.30;;
15643;SDS011;7921;43.586;1.408;2024-01-15T14:23:36;27.30;;;24.60;;
15643;SDS011;7921;43.586;1.408;2024-01-15T14:26:02;15.37;;;13.87;;
15643;SDS011;7921;43.586;1.408;2024-01-15T14:28:27;16.70;;;14.73;;
15643;SDS011;7921;43.586;1.408;2024-01-15T14:30:52;18.33;;;16.53;;
15643;SDS011;7921;43.586;1.408;2024-01-15T14:33:18;13.87;;;12.57;;
15643;SDS011;7921;43.586;1.408;2024-01-15T14:35:43;13.00;;;11.67;;
15643;SDS011;7921;43.586;1.408;2024-01-15T14:38:09;15.53;;;14.07;;
15643;SDS011;7921;43.586;1.408;2024-01-15T14:40:34;13.03;;;11.90;;
15643;SDS011;7921;43.586;1.408;2024-01-15T14:43:01;11.93;;;10.83;;
15643;SDS011;7921;43.586;1.408;2024-01-15T14:45:27;10.00;;;9.10;;
15643;SDS011;7921;43.586;1.408;2024-01-15T14:47:52;10.20;;;9.23;;
15643;SDS011;7921;43.586;1.408;2024-01-15T14:50:18;11.53;;;10.33;;